Terminal Aerodrome Forecast
Issued by NWS Quad Cities IA IL

Home | Current Version | Previous Version | Text Only | Print | Product List | Glossary On
Versions: 1 2 3 4 5 6 7 8 9 10 11 12 13 14 15 16 17 18 19 20 21 22 23
000
FTUS43 KDVN 242000 AAC
TAFDBQ
TAF AMD
KDBQ 242027Z 2420/2518 17013KT P6SM SCT010 BKN040
      TEMPO 2421/2424 BKN012
     FM250000 21010KT P6SM BKN012
     FM250200 21006KT 1SM BR OVC004
     FM250400 25004KT 1/4SM FG VV002
     FM251500 33008KT P6SM SCT200=

USA.gov is the U.S. government's official web portal to all federal, state and local government web resources and services.